»·PEaware :: N41585 KCVN-KAMA

N41585 :: KCVN-KAMA

FLIGHT INFORMATION

Flight Status: Arrived
Operator: Privately registered:
United States
More flights under this callsign
Pilot: Sonny B. (6473)
Aircraft: PIPER PA-28R-201 ARROW
(P28R)
More flights by this aircraft type
Origin: KCVN Clovis Mun
United States
Destination: KAMA Amarillo Intl
United States
More flights between these airports :: More routes between these airports
Route: TXO JILPY
File this flight plan on PilotEdge
Remarks:
Altitude:
(Current/Filed)
9,000ft
Speed:
(Current/Filed)
130kts
Departed: 21-Aug-17 07:02 PM
Arrived: 21-Aug-17 07:54 PM
Distance/Time
Traveled:
83nm/0:52
Distance/Time
To Go:
Arrived

Flight Plot

Page will automatically refresh every two minutes.

Flight plan parsing failed; only flown route is shown


Map Options




Map Legend


Flown Route
Filed Route
Departure Airport
Arrival Airport
Navaid (VOR, NDB)
Fix

Horizontal Profiles

Position Reports

Time Latitude Longitude Heading Altitude Ground
Speed
21-Aug-17 19:00 34.427013 -103.081129 124 4217ft 0kts
21-Aug-17 19:01 34.427013 -103.081129 124 4217ft 0kts
21-Aug-17 19:02 34.427013 -103.081129 124 4217ft 0kts
21-Aug-17 19:03 34.427013 -103.081129 124 4217ft 0kts
21-Aug-17 19:04 34.427013 -103.081129 124 4217ft 0kts
21-Aug-17 19:05 34.426096 -103.079274 44 4217ft 15kts
21-Aug-17 19:06 34.438668 -103.061730 56 4918ft 88kts
21-Aug-17 19:07 34.448738 -103.034852 66 5984ft 89kts
21-Aug-17 19:08 34.457040 -103.006914 72 6926ft 91kts
21-Aug-17 19:09 34.465023 -102.977719 71 7842ft 92kts
21-Aug-17 19:10 34.471846 -102.947525 80 8710ft 94kts
21-Aug-17 19:11 34.479054 -102.911730 74 9004ft 134kts
21-Aug-17 19:12 34.489451 -102.865565 75 8996ft 148kts
21-Aug-17 19:13 34.505798 -102.820107 57 8995ft 150kts
21-Aug-17 19:14 34.524977 -102.783097 58 8995ft 150kts
21-Aug-17 19:15 34.547024 -102.740600 58 8995ft 151kts
21-Aug-17 19:16 34.569165 -102.697938 58 8995ft 151kts
21-Aug-17 19:17 34.591187 -102.655052 58 8995ft 151kts
21-Aug-17 19:18 34.609231 -102.619063 58 8995ft 151kts
21-Aug-17 19:19 34.630841 -102.576012 58 8995ft 151kts
21-Aug-17 19:20 34.652549 -102.532809 58 8995ft 151kts
21-Aug-17 19:21 34.677884 -102.482413 58 8995ft 151kts
21-Aug-17 19:22 34.699552 -102.439131 61 8995ft 151kts
21-Aug-17 19:23 34.719978 -102.395475 60 8995ft 151kts
21-Aug-17 19:24 34.737053 -102.359009 60 8995ft 151kts
21-Aug-17 19:25 34.757596 -102.315192 60 8995ft 151kts
21-Aug-17 19:26 34.778497 -102.271766 59 8995ft 151kts
21-Aug-17 19:27 34.799456 -102.228817 59 8995ft 151kts
21-Aug-17 19:28 34.820552 -102.185612 59 8995ft 151kts
21-Aug-17 19:29 34.841127 -102.143490 59 8995ft 151kts
21-Aug-17 19:30 34.862162 -102.100798 58 8995ft 151kts
21-Aug-17 19:31 34.883720 -102.058303 58 8995ft 151kts
21-Aug-17 19:32 34.904818 -102.015978 59 8824ft 146kts
21-Aug-17 19:33 34.925245 -101.975485 55 8444ft 145kts
21-Aug-17 19:34 34.944903 -101.935020 58 8051ft 144kts
21-Aug-17 19:35 34.963515 -101.894546 60 7606ft 142kts
21-Aug-17 19:36 34.983310 -101.855596 57 6981ft 142kts
21-Aug-17 19:37 35.002562 -101.815598 60 6378ft 140kts
21-Aug-17 19:38 35.021588 -101.775776 58 6001ft 134kts
21-Aug-17 19:39 35.039944 -101.739768 58 6002ft 124kts
21-Aug-17 19:40 35.062355 -101.745269 272 6001ft 121kts
21-Aug-17 19:41 35.065273 -101.785983 281 6003ft 121kts
21-Aug-17 19:42 35.073362 -101.826008 284 6003ft 121kts
21-Aug-17 19:43 35.091946 -101.860097 306 6003ft 121kts
21-Aug-17 19:44 35.116253 -101.888598 317 6003ft 121kts
21-Aug-17 19:45 35.145198 -101.909391 332 6003ft 121kts
21-Aug-17 19:46 35.176350 -101.923459 344 6003ft 121kts
21-Aug-17 19:47 35.210850 -101.931827 355 6005ft 137kts
21-Aug-17 19:48 35.249244 -101.935454 5 6002ft 141kts
21-Aug-17 19:49 35.287641 -101.930578 16 6003ft 141kts
21-Aug-17 19:50 35.317149 -101.907288 79 5995ft 130kts
21-Aug-17 19:51 35.314382 -101.865514 112 5765ft 124kts
21-Aug-17 19:52 35.298938 -101.830336 120 5463ft 109kts
21-Aug-17 19:53 35.285207 -101.801742 120 5463ft 88kts
21-Aug-17 19:54 35.272827 -101.775607 118 5420ft 93kts
21-Aug-17 19:55 35.260006 -101.747132 119 4902ft 95kts
21-Aug-17 19:56 35.249020 -101.719130 123 4433ft 86kts
21-Aug-17 19:57 35.232452 -101.699821 138 3759ft 79kts
21-Aug-17 19:58 35.225105 -101.693097 226 3609ft 0kts
21-Aug-17 19:59 35.224823 -101.693472 230 3609ft 10kts

Navigation Log

Ident Type
Flight plan parsing failed, navigation log unavailable